Randalls Island, New York
Current Conditions -  °F | °C
As of 1:51 PM on Friday 24 Oct 2014 (Local Time) from KNYC Reporting Station
Overcast Overcast  
Wind Chill: 59°   Ceiling: 3800
Heat Index: 59°   Visibility: 10mi
Dew Point: 43°   Wind: 7mph
Humidity: 55%   Direction: NA
Pressure: 29.8"   Gusts: NA
Location:  40.8022°N, 73.9368°W
Report Text: KNYC 241751Z AUTO VRB06KT 10SM OVC038 15/06 A2980 RMK AO2 SLP083 T01500061 10156 20111 58014 $
Loading
Personal Weather Stations






























Interactive Weather Map
Tropical Storm Tracking
New forecast layout! Learn more

10-Day Weather Forecast

Advertisements
Track Severe Weather on mobile